createdAt,value
2023-04-08T00:02:16.048Z,102254.69
2023-04-08T00:04:45.392Z,102247.69
2023-04-08T00:07:13.426Z,102257.44
2023-04-08T00:09:41.378Z,102259.22
2023-04-08T00:12:09.473Z,102253.03
2023-04-08T00:14:38.378Z,102247.75
2023-04-08T00:17:06.569Z,102255.72
2023-04-08T00:19:36.201Z,102249.59
2023-04-08T00:22:06.105Z,102250.44
2023-04-08T00:24:34.037Z,102250.47
2023-04-08T00:27:02.856Z,102256.66
2023-04-08T00:29:30.847Z,102251.34
2023-04-08T00:31:58.773Z,102248.69
2023-04-08T00:34:27.087Z,102250.44
2023-04-08T00:36:55.048Z,102249.56
2023-04-08T00:39:24.289Z,102247.75
2023-04-08T00:41:52.137Z,102248.63
2023-04-08T00:44:20.089Z,102246.00
2023-04-08T00:46:48.655Z,102250.41
2023-04-08T00:49:17.606Z,102258.38
2023-04-08T00:51:45.566Z,102256.59
2023-04-08T00:54:13.593Z,102255.72
2023-04-08T00:56:42.863Z,102260.16
2023-04-08T00:59:10.791Z,102258.44
2023-04-08T01:01:45.631Z,102252.28
2023-04-08T01:04:17.660Z,102238.28
2023-04-08T01:06:48.609Z,102247.09
2023-04-08T01:09:16.488Z,102248.97
2023-04-08T01:11:45.865Z,102212.16
2023-04-08T01:14:16.211Z,102259.59
2023-04-08T01:16:44.090Z,102259.63
2023-04-08T01:19:12.026Z,102252.63
2023-04-08T01:21:39.977Z,102249.13
2023-04-08T01:24:10.063Z,102257.09
2023-04-08T01:26:39.327Z,102251.78
2023-04-08T01:29:07.189Z,102255.38
2023-04-08T01:31:35.073Z,102251.91
2023-04-08T01:34:04.660Z,102259.81
2023-04-08T01:36:33.308Z,102241.34
2023-04-08T01:39:01.676Z,102256.34
2023-04-08T01:41:29.686Z,102251.97
2023-04-08T01:43:58.919Z,102258.16
2023-04-08T01:46:26.827Z,102252.88
2023-04-08T01:48:54.820Z,102257.28
2023-04-08T01:51:23.627Z,102243.28
2023-04-08T01:53:51.689Z,102267.88
2023-04-08T01:56:19.645Z,102270.53
2023-04-08T01:58:48.834Z,102265.28
2023-04-08T02:01:19.203Z,102266.16
2023-04-08T02:03:47.209Z,102260.91
2023-04-08T02:06:15.323Z,102263.59
2023-04-08T02:08:43.181Z,102267.19
2023-04-08T02:11:11.398Z,102228.59
2023-04-08T02:13:39.264Z,102264.69
2023-04-08T02:16:12.113Z,102256.81
2023-04-08T02:18:41.403Z,102257.81
2023-04-08T02:21:11.417Z,102252.53
2023-04-08T02:23:39.917Z,102260.50
2023-04-08T02:26:09.412Z,102267.56
2023-04-08T02:28:37.402Z,102265.81
2023-04-08T02:31:05.815Z,102271.13
2023-04-08T02:33:33.702Z,102273.78
2023-04-08T02:36:03.048Z,102263.19
2023-04-08T02:38:31.022Z,102267.59
2023-04-08T02:40:58.938Z,102257.00
2023-04-08T02:43:32.372Z,102262.31
2023-04-08T02:46:00.826Z,102265.00
2023-04-08T02:48:28.732Z,102255.31
2023-04-08T02:50:57.315Z,102262.34
2023-04-08T02:53:26.566Z,102270.31
2023-04-08T02:55:54.484Z,102272.06
2023-04-08T02:58:22.363Z,102272.94
2023-04-08T03:00:50.303Z,102277.34
2023-04-08T03:03:18.215Z,102279.97
2023-04-08T03:05:46.129Z,102268.47
2023-04-08T03:08:14.002Z,102257.03
2023-04-08T03:10:43.564Z,102268.47
2023-04-08T03:13:11.475Z,102267.59
2023-04-08T03:15:39.487Z,102257.00
2023-04-08T03:18:07.409Z,102264.97
2023-04-08T03:20:35.633Z,102262.31
2023-04-08T03:23:03.536Z,102277.31
2023-04-08T03:25:31.783Z,102273.78
2023-04-08T03:28:01.049Z,102278.19
2023-04-08T03:30:29.188Z,102279.94
2023-04-08T03:32:57.112Z,102283.41
2023-04-08T03:35:25.488Z,102269.28
2023-04-08T03:37:54.597Z,102287.66
2023-04-08T03:40:22.498Z,102288.50
2023-04-08T03:42:50.376Z,102284.91
2023-04-08T03:45:20.493Z,102271.72
2023-04-08T03:47:48.391Z,102284.91
2023-04-08T03:50:16.314Z,102285.78
2023-04-08T03:52:44.237Z,102284.88
2023-04-08T03:55:12.172Z,102295.53
2023-04-08T03:57:40.067Z,102303.47
2023-04-08T04:00:09.349Z,102290.19
2023-04-08T04:02:38.775Z,102274.38
2023-04-08T04:05:07.201Z,102294.59
2023-04-08T04:07:35.118Z,102298.09
2023-04-08T04:10:03.125Z,102291.97
2023-04-08T04:12:31.023Z,102297.28
2023-04-08T04:14:58.977Z,102295.44
2023-04-08T04:17:27.156Z,102306.03
2023-04-08T04:19:56.490Z,102297.19
2023-04-08T04:22:24.471Z,102303.31
2023-04-08T04:24:52.352Z,102301.56
2023-04-08T04:27:20.247Z,102297.97
2023-04-08T04:29:48.168Z,102297.09
2023-04-08T04:32:16.231Z,102304.09
2023-04-08T04:34:44.752Z,102306.69
2023-04-08T04:37:14.074Z,102304.91
2023-04-08T04:39:42.014Z,102303.13
2023-04-08T04:42:09.934Z,102305.75
2023-04-08T04:44:37.848Z,102310.16
2023-04-08T04:47:05.980Z,102320.75
2023-04-08T04:49:33.870Z,102305.72
2023-04-08T04:52:01.780Z,102306.63
2023-04-08T04:54:31.141Z,102314.56
2023-04-08T04:56:59.015Z,102310.13
2023-04-08T04:59:26.907Z,102308.34
2023-04-08T05:01:57.778Z,102314.53
2023-04-08T05:04:25.923Z,102311.88
2023-04-08T05:06:53.829Z,102311.88
2023-04-08T05:09:21.808Z,102299.53
2023-04-08T05:11:51.181Z,102308.41
2023-04-08T05:14:19.163Z,102298.66
2023-04-08T05:16:46.997Z,102303.97
2023-04-08T05:19:17.845Z,102309.22
2023-04-08T05:21:45.800Z,102307.41
2023-04-08T05:24:13.687Z,102312.69
2023-04-08T05:26:41.671Z,102304.78
2023-04-08T05:29:12.126Z,102317.97
2023-04-08T05:31:40.100Z,102316.16
2023-04-08T05:34:07.996Z,102311.66
2023-04-08T05:36:36.300Z,102315.97
2023-04-08T05:39:04.467Z,102318.56
2023-04-08T05:41:32.426Z,102317.63
2023-04-08T05:44:01.004Z,102323.75
2023-04-08T05:46:30.557Z,102311.47
2023-04-08T05:48:58.426Z,102324.66
2023-04-08T05:51:26.353Z,102329.00
2023-04-08T05:53:54.328Z,102323.66
2023-04-08T05:56:22.534Z,102331.63
2023-04-08T05:58:50.907Z,102329.81
2023-04-08T06:01:19.000Z,102331.50
2023-04-08T06:03:48.439Z,102331.47
2023-04-08T06:06:16.512Z,102323.53
2023-04-08T06:08:44.430Z,102332.28
2023-04-08T06:11:12.319Z,102327.81
2023-04-08T06:13:40.426Z,102327.75
2023-04-08T06:16:12.372Z,102342.72
2023-04-08T06:18:40.420Z,102337.34
2023-04-08T06:21:16.999Z,102339.03
2023-04-08T06:23:44.947Z,102350.44
2023-04-08T06:26:13.540Z,102353.91
2023-04-08T06:28:41.444Z,102358.28
2023-04-08T06:31:09.341Z,102359.06
2023-04-08T06:33:37.230Z,102365.19
2023-04-08T06:36:05.451Z,102360.69
2023-04-08T06:38:34.811Z,102365.91
2023-04-08T06:41:06.015Z,102366.66
2023-04-08T06:43:34.204Z,102370.13
2023-04-08T06:46:02.434Z,102369.13
2023-04-08T06:48:30.868Z,102376.09
2023-04-08T06:50:58.948Z,102388.44
2023-04-08T06:53:27.016Z,102384.78
2023-04-08T06:55:56.623Z,102382.03
2023-04-08T06:58:24.566Z,102380.13
2023-04-08T07:00:53.403Z,102381.78
2023-04-08T07:03:22.597Z,102385.25
2023-04-08T07:05:50.717Z,102372.84
2023-04-08T07:08:20.126Z,102389.53
2023-04-08T07:10:48.319Z,102398.09
2023-04-08T07:13:17.624Z,102399.78
2023-04-08T07:15:45.595Z,102396.97
2023-04-08T07:18:13.979Z,102388.94
2023-04-08T07:20:42.187Z,102401.19
2023-04-08T07:23:10.857Z,102403.69
2023-04-08T07:25:38.813Z,102408.00
2023-04-08T07:28:06.908Z,102402.50
2023-04-08T07:30:36.206Z,102403.19
2023-04-08T07:33:04.153Z,102403.00
2023-04-08T07:35:32.165Z,102410.00
2023-04-08T07:38:00.160Z,102412.59
2023-04-08T07:40:28.095Z,102410.53
2023-04-08T07:42:56.064Z,102418.22
2023-04-08T07:45:23.961Z,102414.50
2023-04-08T07:47:53.317Z,102412.47
2023-04-08T07:50:21.514Z,102415.88
2023-04-08T07:52:49.445Z,102408.59
2023-04-08T07:55:17.508Z,102418.25
2023-04-08T07:57:46.150Z,102411.88
2023-04-08T08:00:20.912Z,102420.63
2023-04-08T08:02:49.317Z,102429.16
2023-04-08T08:05:19.020Z,102427.06
2023-04-08T08:07:47.022Z,102426.91
2023-04-08T08:10:15.270Z,102432.97
2023-04-08T08:12:43.226Z,102435.28
2023-04-08T08:15:12.238Z,102437.75
2023-04-08T08:17:40.576Z,102439.31
2023-04-08T08:20:10.500Z,102430.22
2023-04-08T08:22:50.907Z,102429.91
2023-04-08T08:25:26.252Z,102427.91
2023-04-08T08:27:55.504Z,102429.56
2023-04-08T08:30:23.654Z,102432.06
2023-04-08T08:32:52.302Z,102435.59
2023-04-08T08:35:20.491Z,102434.66
2023-04-08T08:37:50.055Z,102438.28
2023-04-08T08:40:18.152Z,102444.44
2023-04-08T08:42:51.586Z,102446.06
2023-04-08T08:45:20.337Z,102455.66
2023-04-08T08:47:50.846Z,102446.50
2023-04-08T08:50:19.501Z,102448.91
2023-04-08T08:52:52.055Z,102448.81
2023-04-08T08:55:36.291Z,102438.88
2023-04-08T08:58:08.703Z,102444.94
2023-04-08T09:00:38.306Z,102431.56
2023-04-08T09:03:17.197Z,102430.50
2023-04-08T09:05:52.280Z,102442.78
2023-04-08T09:08:32.146Z,102437.22
2023-04-08T09:11:13.549Z,102446.72
2023-04-08T09:13:41.528Z,102445.56
2023-04-08T09:16:10.557Z,102447.19
2023-04-08T09:18:38.871Z,102442.59
2023-04-08T09:21:07.945Z,102431.88
2023-04-08T09:23:44.421Z,102434.94
2023-04-08T09:26:13.595Z,102446.38
2023-04-08T09:28:42.584Z,102445.16
2023-04-08T09:31:23.069Z,102434.28
2023-04-08T09:33:51.484Z,102438.59
2023-04-08T09:36:20.058Z,102444.38
2023-04-08T09:38:50.630Z,102436.81
2023-04-08T09:41:18.983Z,102444.13
2023-04-08T09:43:50.848Z,102455.25
2023-04-08T09:46:23.723Z,102443.28
2023-04-08T09:48:55.540Z,102441.13
2023-04-08T09:51:24.449Z,102446.09
2023-04-08T09:53:59.078Z,102445.81
2023-04-08T09:56:27.567Z,102450.91
2023-04-08T09:59:00.512Z,102426.00
2023-04-08T10:01:30.819Z,102440.66
2023-04-08T10:03:59.617Z,102441.44
2023-04-08T10:06:32.044Z,102440.44
2023-04-08T10:09:02.172Z,102429.38
2023-04-08T10:11:30.087Z,102427.84
2023-04-08T10:13:58.020Z,102432.78
2023-04-08T10:16:27.574Z,102428.97
2023-04-08T10:18:57.021Z,102430.22
2023-04-08T10:21:38.710Z,102416.28
2023-04-08T10:24:11.171Z,102427.88
2023-04-08T10:26:42.605Z,102438.81
2023-04-08T10:29:35.690Z,102430.50
2023-04-08T10:32:03.627Z,102440.25
2023-04-08T10:34:31.551Z,102435.19
2023-04-08T10:37:03.932Z,102418.00
2023-04-08T10:39:33.579Z,102425.34
2023-04-08T10:44:31.413Z,102426.44
2023-04-08T10:47:00.282Z,102420.53
2023-04-08T10:49:34.742Z,102419.03
2023-04-08T10:52:02.705Z,102418.38
2023-04-08T10:54:31.402Z,102414.31
2023-04-08T10:57:00.868Z,102417.03
2023-04-08T10:59:29.273Z,102405.53
2023-04-08T11:01:58.590Z,102413.09
2023-04-08T11:04:27.441Z,102404.16
2023-04-08T11:06:55.589Z,102407.88
2023-04-08T11:09:23.691Z,102395.66
2023-04-08T11:11:52.243Z,102400.09
2023-04-08T11:14:22.546Z,102397.72
2023-04-08T11:16:50.548Z,102393.03
2023-04-08T11:19:18.803Z,102384.72
2023-04-08T11:21:46.879Z,102389.56
2023-04-08T11:24:16.472Z,102386.56
2023-04-08T11:26:44.582Z,102391.00
2023-04-08T11:29:14.353Z,102391.47
2023-04-08T11:31:44.307Z,102379.09
2023-04-08T11:34:12.634Z,102388.28
2023-04-08T11:36:41.989Z,102377.03
2023-04-08T11:39:10.593Z,102366.88
2023-04-08T11:41:39.494Z,102383.81
2023-04-08T11:44:07.866Z,102377.63
2023-04-08T11:46:36.339Z,102377.56
2023-04-08T11:49:07.904Z,102378.50
2023-04-08T11:51:36.226Z,102384.41
2023-04-08T11:54:06.222Z,102379.25
2023-04-08T11:56:45.697Z,102376.47
2023-04-08T11:59:13.626Z,102382.34
2023-04-08T12:01:41.569Z,102379.31
2023-04-08T12:04:12.412Z,102381.34
2023-04-08T12:06:43.573Z,102390.22
2023-04-08T12:09:11.591Z,102388.59
2023-04-08T12:11:39.516Z,102384.75
2023-04-08T12:14:07.542Z,102389.09
2023-04-08T12:16:35.544Z,102388.63
2023-04-08T12:19:03.571Z,102383.59
2023-04-08T12:21:33.990Z,102393.81
2023-04-08T12:24:02.025Z,102387.75
2023-04-08T12:26:29.925Z,102391.53
2023-04-08T12:28:57.897Z,102385.72
2023-04-08T12:31:27.783Z,102386.78
2023-04-08T12:33:55.739Z,102395.19
2023-04-08T12:36:23.668Z,102397.88
2023-04-08T12:38:53.129Z,102387.28
2023-04-08T12:41:21.810Z,102390.16
2023-04-08T12:43:49.711Z,102387.00
2023-04-08T12:46:17.794Z,102388.34
2023-04-08T12:48:47.540Z,102396.56
2023-04-08T12:51:15.866Z,102389.59
2023-04-08T12:53:44.075Z,102388.34
2023-04-08T12:56:13.377Z,102390.75
2023-04-08T12:58:41.423Z,102391.53
2023-04-08T13:01:09.382Z,102385.22
2023-04-08T13:03:37.506Z,102383.00
2023-04-08T13:06:05.473Z,102387.19
2023-04-08T13:08:33.414Z,102391.53
2023-04-08T13:11:01.341Z,102385.13
2023-04-08T13:13:30.643Z,102388.22
2023-04-08T13:15:58.962Z,102383.56
2023-04-08T13:18:27.230Z,102381.72
2023-04-08T13:20:58.261Z,102390.53
2023-04-08T13:23:26.589Z,102383.97
2023-04-08T13:25:54.549Z,102387.16
2023-04-08T13:28:22.421Z,102386.75
2023-04-08T13:30:51.860Z,102390.53
2023-04-08T13:33:19.787Z,102394.41
2023-04-08T13:35:47.760Z,102387.94
2023-04-08T13:38:15.685Z,102389.47
2023-04-08T13:40:43.827Z,102387.06
2023-04-08T13:43:11.744Z,102394.28
2023-04-08T13:45:40.692Z,102382.81
2023-04-08T13:48:10.093Z,102386.25
2023-04-08T13:50:38.952Z,102374.97
2023-04-08T13:53:06.876Z,102382.22
2023-04-08T13:55:34.773Z,102368.50
2023-04-08T13:58:06.469Z,102372.25
2023-04-08T14:00:36.684Z,102377.66
2023-04-08T14:03:04.875Z,102378.72
2023-04-08T14:05:34.275Z,102371.84
2023-04-08T14:08:02.154Z,102375.91
2023-04-08T14:10:30.532Z,102365.75
2023-04-08T14:12:58.482Z,102362.59
2023-04-08T14:15:26.341Z,102360.97
2023-04-08T14:17:54.261Z,102364.44
2023-04-08T14:20:22.419Z,102357.88
2023-04-08T14:22:51.925Z,102374.59
2023-04-08T14:25:19.882Z,102373.22
2023-04-08T14:27:57.346Z,102371.28
2023-04-08T14:30:26.887Z,102367.72
2023-04-08T14:32:55.317Z,102369.84
2023-04-08T14:35:23.282Z,102373.19
2023-04-08T14:37:52.568Z,102374.50
2023-04-08T14:40:20.448Z,102377.38
2023-04-08T14:42:49.867Z,102369.72
2023-04-08T14:45:18.102Z,102354.72
2023-04-08T14:47:46.090Z,102358.94
2023-04-08T14:50:14.081Z,102343.94
2023-04-08T14:52:42.173Z,102354.19
2023-04-08T14:55:11.672Z,102349.41
2023-04-08T14:57:39.559Z,102351.56
2023-04-08T15:00:08.996Z,102353.16
2023-04-08T15:02:36.995Z,102344.81
2023-04-08T15:05:05.566Z,102346.06
2023-04-08T15:07:33.482Z,102337.41
2023-04-08T15:10:01.978Z,102348.06
2023-04-08T15:12:33.046Z,102354.47
2023-04-08T15:15:00.978Z,102343.72
2023-04-08T15:17:28.982Z,102347.41
2023-04-08T15:19:57.296Z,102335.91
2023-04-08T15:22:25.282Z,102330.38
2023-04-08T15:24:53.270Z,102344.16
2023-04-08T15:27:21.600Z,102340.94
2023-04-08T15:29:50.842Z,102335.97
2023-04-08T15:32:18.881Z,102336.44
2023-04-08T15:34:47.472Z,102335.59
2023-04-08T15:37:15.542Z,102329.56
2023-04-08T15:39:43.470Z,102333.22
2023-04-08T15:42:11.329Z,102332.13
2023-04-08T15:44:39.262Z,102323.28
2023-04-08T15:47:08.997Z,102319.03
2023-04-08T15:49:36.940Z,102326.78
2023-04-08T15:52:05.010Z,102331.47
2023-04-08T15:54:34.517Z,102330.97
2023-04-08T15:57:03.505Z,102327.50
2023-04-08T15:59:31.504Z,102327.97
2023-04-08T16:01:59.490Z,102322.91
2023-04-08T16:04:29.041Z,102321.50
2023-04-08T16:06:57.017Z,102317.84
2023-04-08T16:09:26.808Z,102329.44
2023-04-08T16:11:54.813Z,102332.56
2023-04-08T16:14:22.760Z,102320.38
2023-04-08T16:16:51.335Z,102324.75
2023-04-08T16:19:19.283Z,102322.81
2023-04-08T16:21:48.710Z,102321.00
2023-04-08T16:24:16.766Z,102323.25
2023-04-08T16:26:44.831Z,102308.81
2023-04-08T16:29:12.764Z,102321.28
2023-04-08T16:31:40.978Z,102308.38
2023-04-08T16:34:09.125Z,102309.34
2023-04-08T16:36:37.136Z,102308.28
2023-04-08T16:39:06.452Z,102314.06
2023-04-08T16:41:34.572Z,102307.25
2023-04-08T16:44:02.533Z,102325.72
2023-04-08T16:46:30.537Z,102330.41
2023-04-08T16:48:58.944Z,102335.16
2023-04-08T16:51:30.050Z,102326.44
2023-04-08T16:54:00.855Z,102330.50
2023-04-08T16:56:30.485Z,102326.97
2023-04-08T16:58:58.672Z,102326.13
2023-04-08T17:01:27.082Z,102325.41
2023-04-08T17:03:55.368Z,102328.91
2023-04-08T17:06:23.965Z,102328.53
2023-04-08T17:08:52.621Z,102327.41
2023-04-08T17:11:21.948Z,102336.38
2023-04-08T17:13:51.637Z,102338.84
2023-04-08T17:16:19.682Z,102333.28
2023-04-08T17:18:47.834Z,102339.69
2023-04-08T17:21:16.015Z,102336.38
2023-04-08T17:23:43.986Z,102336.91
2023-04-08T17:26:12.893Z,102334.97
2023-04-08T17:28:40.806Z,102339.28
2023-04-08T17:31:10.646Z,102335.22
2023-04-08T17:33:38.649Z,102335.91
2023-04-08T17:36:07.960Z,102340.00
2023-04-08T17:38:39.835Z,102345.22
2023-04-08T17:41:10.063Z,102336.97
2023-04-08T17:43:38.087Z,102342.09
2023-04-08T17:46:06.268Z,102343.69
2023-04-08T17:48:35.563Z,102347.94
2023-04-08T17:51:03.729Z,102350.34
2023-04-08T17:53:32.112Z,102343.63
2023-04-08T17:56:00.133Z,102339.72
2023-04-08T17:58:28.411Z,102336.03
2023-04-08T18:00:56.358Z,102335.72
2023-04-08T18:03:24.441Z,102345.97
2023-04-08T18:05:55.177Z,102344.75
2023-04-08T18:08:23.142Z,102349.75
2023-04-08T18:10:51.092Z,102349.19
2023-04-08T18:13:18.976Z,102341.63
2023-04-08T18:15:46.919Z,102342.03
2023-04-08T18:18:19.728Z,102344.13
2023-04-08T18:20:47.676Z,102337.31
2023-04-08T18:23:17.216Z,102349.00
2023-04-08T18:25:47.299Z,102334.16
2023-04-08T18:28:15.661Z,102325.75
2023-04-08T18:30:43.813Z,102324.19
2023-04-08T18:33:11.817Z,102340.94
2023-04-08T18:35:39.781Z,102334.94
2023-04-08T18:38:07.854Z,102327.19
2023-04-08T18:40:37.706Z,102337.28
2023-04-08T18:43:06.079Z,102337.69
2023-04-08T18:45:34.111Z,102334.53
2023-04-08T18:48:02.171Z,102337.50
2023-04-08T18:50:30.380Z,102336.13
2023-04-08T18:52:58.335Z,102339.00
2023-04-08T18:55:26.398Z,102341.16
2023-04-08T18:57:55.796Z,102346.69
2023-04-08T19:00:23.894Z,102341.69
2023-04-08T19:02:52.057Z,102328.91
2023-04-08T19:05:20.325Z,102351.09
2023-04-08T19:07:48.677Z,102345.91
2023-04-08T19:10:16.591Z,102344.28
2023-04-08T19:12:44.761Z,102351.59
2023-04-08T19:15:14.789Z,102338.47
2023-04-08T19:17:42.725Z,102355.31
2023-04-08T19:20:11.584Z,102341.22
2023-04-08T19:22:40.750Z,102344.97
2023-04-08T19:25:09.259Z,102338.88
2023-04-08T19:27:37.671Z,102340.72
2023-04-08T19:30:06.807Z,102332.88
2023-04-08T19:32:36.351Z,102337.44
2023-04-08T19:35:04.411Z,102335.59
2023-04-08T19:37:32.294Z,102343.66
2023-04-08T19:40:00.270Z,102334.00
2023-04-08T19:42:28.353Z,102337.63
2023-04-08T19:44:56.303Z,102334.16
2023-04-08T19:47:24.265Z,102338.69
2023-04-08T19:49:53.603Z,102328.09
2023-04-08T19:52:21.565Z,102340.66
2023-04-08T19:54:51.269Z,102336.25
2023-04-08T19:57:19.373Z,102340.75
2023-04-08T19:59:47.976Z,102335.44
2023-04-08T20:02:16.007Z,102338.25
2023-04-08T20:04:44.070Z,102332.06
2023-04-08T20:07:13.385Z,102332.19
2023-04-08T20:09:41.311Z,102335.69
2023-04-08T20:12:09.193Z,102328.75
2023-04-08T20:14:40.449Z,102326.16
2023-04-08T20:17:08.398Z,102324.50
2023-04-08T20:19:36.421Z,102329.13
2023-04-08T20:22:04.354Z,102330.97
2023-04-08T20:24:34.077Z,102325.81
2023-04-08T20:27:02.024Z,102329.38
2023-04-08T20:29:29.901Z,102326.78
2023-04-08T20:31:57.916Z,102325.09
2023-04-08T20:34:26.195Z,102326.00
2023-04-08T20:36:54.175Z,102326.19
2023-04-08T20:39:29.174Z,102318.19
2023-04-08T20:41:59.460Z,102319.09
2023-04-08T20:44:27.467Z,102318.25
2023-04-08T20:46:55.825Z,102321.88
2023-04-08T20:49:24.254Z,102318.44
2023-04-08T20:51:52.149Z,102307.97
2023-04-08T20:54:20.164Z,102319.50
2023-04-08T20:56:48.058Z,102321.31
2023-04-08T20:59:17.347Z,102318.75
2023-04-08T21:01:45.724Z,102311.69
2023-04-08T21:04:13.734Z,102313.59
2023-04-08T21:06:42.171Z,102310.06
2023-04-08T21:09:11.395Z,102313.72
2023-04-08T21:11:39.510Z,102312.88
2023-04-08T21:14:07.408Z,102316.50
2023-04-08T21:16:36.900Z,102313.00
2023-04-08T21:19:04.958Z,102313.88
2023-04-08T21:21:32.879Z,102305.88
2023-04-08T21:24:01.694Z,102307.72
2023-04-08T21:26:29.638Z,102313.16
2023-04-08T21:28:57.733Z,102306.13
2023-04-08T21:31:26.883Z,102320.31
2023-04-08T21:33:56.150Z,102302.56
2023-04-08T21:36:24.000Z,102307.06
2023-04-08T21:38:52.039Z,102306.28
2023-04-08T21:41:21.383Z,102297.34
2023-04-08T21:43:50.643Z,102302.78
2023-04-08T21:46:18.628Z,102300.13
2023-04-08T21:48:46.573Z,102301.06
2023-04-08T21:51:17.562Z,102296.63
2023-04-08T21:53:45.604Z,102286.91
2023-04-08T21:56:14.097Z,102279.91
2023-04-08T21:58:42.226Z,102289.69
2023-04-08T22:01:10.188Z,102277.25
2023-04-08T22:03:38.309Z,102287.03
2023-04-08T22:06:10.959Z,102283.47
2023-04-08T22:08:42.415Z,102277.38
2023-04-08T22:11:10.300Z,102288.91
2023-04-08T22:13:38.283Z,102282.78
2023-04-08T22:16:08.139Z,102273.00
2023-04-08T22:18:36.083Z,102276.50
2023-04-08T22:21:04.083Z,102271.22
2023-04-08T22:23:31.939Z,102279.25
2023-04-08T22:26:01.188Z,102280.16
2023-04-08T22:28:29.210Z,102288.13
2023-04-08T22:30:57.123Z,102293.50
2023-04-08T22:33:25.688Z,102290.00
2023-04-08T22:35:53.708Z,102290.00
2023-04-08T22:38:21.627Z,102284.69
2023-04-08T22:40:49.518Z,102291.78
2023-04-08T22:43:18.790Z,102292.78
2023-04-08T22:45:46.906Z,102282.91
2023-04-08T22:48:14.852Z,102288.34
2023-04-08T22:50:42.741Z,102279.50
2023-04-08T22:53:10.655Z,102283.13
2023-04-08T22:55:38.576Z,102276.97
2023-04-08T22:58:06.594Z,102281.34
2023-04-08T23:00:35.838Z,102281.34
2023-04-08T23:03:04.853Z,102272.47
2023-04-08T23:05:33.482Z,102274.25
2023-04-08T23:08:01.550Z,102268.03
2023-04-08T23:10:29.423Z,102258.22
2023-04-08T23:12:57.367Z,102260.03
2023-04-08T23:15:25.262Z,102245.00
2023-04-08T23:17:54.510Z,102259.22
2023-04-08T23:20:22.522Z,102245.94
2023-04-08T23:22:50.692Z,102250.34
2023-04-08T23:25:18.743Z,102248.56
2023-04-08T23:27:46.829Z,102245.06
2023-04-08T23:30:14.963Z,102248.66
2023-04-08T23:32:43.019Z,102246.06
2023-04-08T23:35:12.456Z,102253.22
2023-04-08T23:37:40.449Z,102246.16
2023-04-08T23:40:09.865Z,102247.09
2023-04-08T23:42:37.860Z,102235.56
2023-04-08T23:45:06.820Z,102236.50
2023-04-08T23:47:34.758Z,102228.56
2023-04-08T23:50:02.739Z,102211.03
2023-04-08T23:52:31.987Z,102219.78
2023-04-08T23:54:59.895Z,102216.34
2023-04-08T23:57:27.799Z,102205.72
2023-04-08T23:59:55.676Z,102206.69
